sensor_id;sensor_type;location;lat;lon;timestamp;temperature;humidity
39023;DHT22;25908;51.984;5.928;2023-07-29T00:00:56;19.30;99.90
39023;DHT22;25908;51.984;5.928;2023-07-29T00:03:22;19.20;99.90
39023;DHT22;25908;51.984;5.928;2023-07-29T00:05:48;19.20;99.90
39023;DHT22;25908;51.984;5.928;2023-07-29T00:08:13;19.20;99.90
39023;DHT22;25908;51.984;5.928;2023-07-29T00:10:39;19.20;99.90
39023;DHT22;25908;51.984;5.928;2023-07-29T00:13:05;19.20;99.90
39023;DHT22;25908;51.984;5.928;2023-07-29T00:15:31;19.10;99.90
39023;DHT22;25908;51.984;5.928;2023-07-29T00:17:57;19.10;99.90
39023;DHT22;25908;51.984;5.928;2023-07-29T00:20:23;19.10;99.90
39023;DHT22;25908;51.984;5.928;2023-07-29T00:22:48;19.10;99.90
39023;DHT22;25908;51.984;5.928;2023-07-29T00:25:19;19.10;99.90
39023;DHT22;25908;51.984;5.928;2023-07-29T00:27:45;19.10;99.90
39023;DHT22;25908;51.984;5.928;2023-07-29T00:30:11;19.00;99.90
39023;DHT22;25908;51.984;5.928;2023-07-29T00:32:36;19.00;99.90
39023;DHT22;25908;51.984;5.928;2023-07-29T00:35:02;19.00;99.90
39023;DHT22;25908;51.984;5.928;2023-07-29T00:37:29;19.00;99.90
39023;DHT22;25908;51.984;5.928;2023-07-29T00:39:55;19.00;99.90
39023;DHT22;25908;51.984;5.928;2023-07-29T00:42:21;19.00;99.90
39023;DHT22;25908;51.984;5.928;2023-07-29T00:44:46;18.90;99.90
39023;DHT22;25908;51.984;5.928;2023-07-29T00:47:15;18.90;99.90
39023;DHT22;25908;51.984;5.928;2023-07-29T00:49:44;18.90;99.90
39023;DHT22;25908;51.984;5.928;2023-07-29T00:52:11;18.90;99.90
39023;DHT22;25908;51.984;5.928;2023-07-29T00:54:38;18.80;99.90
39023;DHT22;25908;51.984;5.928;2023-07-29T00:57:05;18.80;99.90
39023;DHT22;25908;51.984;5.928;2023-07-29T00:59:31;18.80;99.90
39023;DHT22;25908;51.984;5.928;2023-07-29T01:01:57;18.80;99.90
39023;DHT22;25908;51.984;5.928;2023-07-29T01:04:23;18.80;99.90
39023;DHT22;25908;51.984;5.928;2023-07-29T01:07:18;18.70;99.90
39023;DHT22;25908;51.984;5.928;2023-07-29T01:12:39;18.70;99.90
39023;DHT22;25908;51.984;5.928;2023-07-29T01:15:11;18.70;99.90
39023;DHT22;25908;51.984;5.928;2023-07-29T01:17:43;18.70;99.90
39023;DHT22;25908;51.984;5.928;2023-07-29T01:20:15;18.70;99.90
39023;DHT22;25908;51.984;5.928;2023-07-29T01:22:42;18.70;99.90
39023;DHT22;25908;51.984;5.928;2023-07-29T01:25:08;18.70;99.90
39023;DHT22;25908;51.984;5.928;2023-07-29T01:27:34;18.70;99.90
39023;DHT22;25908;51.984;5.928;2023-07-29T01:30:01;18.70;99.90
39023;DHT22;25908;51.984;5.928;2023-07-29T01:32:52;18.80;99.90
39023;DHT22;25908;51.984;5.928;2023-07-29T01:35:28;18.80;99.90
39023;DHT22;25908;51.984;5.928;2023-07-29T01:38:02;18.70;99.90
39023;DHT22;25908;51.984;5.928;2023-07-29T01:40:28;18.80;99.90
39023;DHT22;25908;51.984;5.928;2023-07-29T01:42:54;18.80;99.90
39023;DHT22;25908;51.984;5.928;2023-07-29T01:45:23;18.80;99.90
39023;DHT22;25908;51.984;5.928;2023-07-29T01:47:51;18.80;99.90
39023;DHT22;25908;51.984;5.928;2023-07-29T01:50:16;18.80;99.90
39023;DHT22;25908;51.984;5.928;2023-07-29T01:52:42;18.80;99.90
39023;DHT22;25908;51.984;5.928;2023-07-29T01:55:08;18.80;99.90
39023;DHT22;25908;51.984;5.928;2023-07-29T01:57:33;18.80;99.90
39023;DHT22;25908;51.984;5.928;2023-07-29T01:59:59;18.90;99.90
39023;DHT22;25908;51.984;5.928;2023-07-29T02:02:25;18.90;99.90
39023;DHT22;25908;51.984;5.928;2023-07-29T02:04:50;18.90;99.90
39023;DHT22;25908;51.984;5.928;2023-07-29T02:07:18;18.90;99.90
39023;DHT22;25908;51.984;5.928;2023-07-29T02:09:44;18.90;99.90
39023;DHT22;25908;51.984;5.928;2023-07-29T02:12:10;18.90;99.90
39023;DHT22;25908;51.984;5.928;2023-07-29T02:14:36;18.90;99.90
39023;DHT22;25908;51.984;5.928;2023-07-29T02:17:01;19.00;99.90
39023;DHT22;25908;51.984;5.928;2023-07-29T02:19:27;18.90;99.90
39023;DHT22;25908;51.984;5.928;2023-07-29T02:21:53;18.90;99.90
39023;DHT22;25908;51.984;5.928;2023-07-29T02:24:18;18.90;99.90
39023;DHT22;25908;51.984;5.928;2023-07-29T02:26:44;19.00;99.90
39023;DHT22;25908;51.984;5.928;2023-07-29T02:29:09;19.00;99.90
39023;DHT22;25908;51.984;5.928;2023-07-29T02:31:35;18.90;99.90
39023;DHT22;25908;51.984;5.928;2023-07-29T02:34:03;18.90;99.90
39023;DHT22;25908;51.984;5.928;2023-07-29T02:36:28;19.00;99.90
39023;DHT22;25908;51.984;5.928;2023-07-29T02:38:54;19.00;99.90
39023;DHT22;25908;51.984;5.928;2023-07-29T02:41:20;19.00;99.90
39023;DHT22;25908;51.984;5.928;2023-07-29T02:43:50;19.00;99.90
39023;DHT22;25908;51.984;5.928;2023-07-29T02:46:16;19.00;99.90
39023;DHT22;25908;51.984;5.928;2023-07-29T02:48:42;19.10;99.90
39023;DHT22;25908;51.984;5.928;2023-07-29T02:51:08;19.10;99.90
39023;DHT22;25908;51.984;5.928;2023-07-29T02:53:33;19.10;99.90
39023;DHT22;25908;51.984;5.928;2023-07-29T02:56:02;19.10;99.90
39023;DHT22;25908;51.984;5.928;2023-07-29T02:58:28;19.10;99.90
39023;DHT22;25908;51.984;5.928;2023-07-29T03:01:01;19.20;99.90
39023;DHT22;25908;51.984;5.928;2023-07-29T03:03:27;19.20;99.90
39023;DHT22;25908;51.984;5.928;2023-07-29T03:06:03;19.20;99.90
39023;DHT22;25908;51.984;5.928;2023-07-29T03:08:29;19.20;99.90
39023;DHT22;25908;51.984;5.928;2023-07-29T03:10:56;19.20;99.90
39023;DHT22;25908;51.984;5.928;2023-07-29T03:13:22;19.20;99.90
39023;DHT22;25908;51.984;5.928;2023-07-29T03:15:47;19.20;99.90
39023;DHT22;25908;51.984;5.928;2023-07-29T03:18:14;19.20;99.90
39023;DHT22;25908;51.984;5.928;2023-07-29T03:20:39;19.20;99.90
39023;DHT22;25908;51.984;5.928;2023-07-29T03:23:06;19.20;99.90
39023;DHT22;25908;51.984;5.928;2023-07-29T03:25:32;19.20;99.90
39023;DHT22;25908;51.984;5.928;2023-07-29T03:27:57;19.20;99.90
39023;DHT22;25908;51.984;5.928;2023-07-29T03:30:23;19.20;99.90
39023;DHT22;25908;51.984;5.928;2023-07-29T03:32:49;19.20;99.90
39023;DHT22;25908;51.984;5.928;2023-07-29T03:35:15;19.20;99.90
39023;DHT22;25908;51.984;5.928;2023-07-29T03:37:41;19.20;99.90
39023;DHT22;25908;51.984;5.928;2023-07-29T03:40:07;19.20;99.90
39023;DHT22;25908;51.984;5.928;2023-07-29T03:42:34;19.10;99.90
39023;DHT22;25908;51.984;5.928;2023-07-29T03:45:00;19.10;99.90
39023;DHT22;25908;51.984;5.928;2023-07-29T03:47:25;19.10;99.90
39023;DHT22;25908;51.984;5.928;2023-07-29T03:49:51;19.10;99.90
39023;DHT22;25908;51.984;5.928;2023-07-29T03:52:17;19.10;99.90
39023;DHT22;25908;51.984;5.928;2023-07-29T03:54:42;19.10;99.90
39023;DHT22;25908;51.984;5.928;2023-07-29T03:57:08;19.10;99.90
39023;DHT22;25908;51.984;5.928;2023-07-29T03:59:33;19.10;99.90
39023;DHT22;25908;51.984;5.928;2023-07-29T04:01:59;19.00;99.90
39023;DHT22;25908;51.984;5.928;2023-07-29T04:04:24;19.00;99.90
39023;DHT22;25908;51.984;5.928;2023-07-29T04:06:50;19.10;99.90
39023;DHT22;25908;51.984;5.928;2023-07-29T04:09:16;19.00;99.90
39023;DHT22;25908;51.984;5.928;2023-07-29T04:11:41;19.00;99.90
39023;DHT22;25908;51.984;5.928;2023-07-29T04:14:07;19.00;99.90
39023;DHT22;25908;51.984;5.928;2023-07-29T04:16:33;19.00;99.90
39023;DHT22;25908;51.984;5.928;2023-07-29T04:18:58;19.00;99.90
39023;DHT22;25908;51.984;5.928;2023-07-29T04:21:24;19.00;99.90
39023;DHT22;25908;51.984;5.928;2023-07-29T04:23:49;18.90;99.90
39023;DHT22;25908;51.984;5.928;2023-07-29T04:26:15;19.00;99.90
39023;DHT22;25908;51.984;5.928;2023-07-29T04:28:41;18.90;99.90
39023;DHT22;25908;51.984;5.928;2023-07-29T04:31:07;18.90;99.90
39023;DHT22;25908;51.984;5.928;2023-07-29T04:33:33;18.90;99.90
39023;DHT22;25908;51.984;5.928;2023-07-29T04:35:59;18.90;99.90
39023;DHT22;25908;51.984;5.928;2023-07-29T04:38:30;18.80;99.90
39023;DHT22;25908;51.984;5.928;2023-07-29T04:40:56;18.80;99.90
39023;DHT22;25908;51.984;5.928;2023-07-29T04:43:21;18.80;99.90
39023;DHT22;25908;51.984;5.928;2023-07-29T04:45:47;18.80;99.90
39023;DHT22;25908;51.984;5.928;2023-07-29T04:48:13;18.80;99.90
39023;DHT22;25908;51.984;5.928;2023-07-29T04:50:39;18.80;99.90
39023;DHT22;25908;51.984;5.928;2023-07-29T04:53:05;18.80;99.90
39023;DHT22;25908;51.984;5.928;2023-07-29T04:55:30;18.80;99.90
39023;DHT22;25908;51.984;5.928;2023-07-29T04:57:56;18.80;99.90
39023;DHT22;25908;51.984;5.928;2023-07-29T05:00:22;18.80;99.90
39023;DHT22;25908;51.984;5.928;2023-07-29T05:02:47;18.80;99.90
39023;DHT22;25908;51.984;5.928;2023-07-29T05:05:13;18.80;99.90
39023;DHT22;25908;51.984;5.928;2023-07-29T05:07:38;18.80;99.90
39023;DHT22;25908;51.984;5.928;2023-07-29T05:10:04;18.80;99.90
39023;DHT22;25908;51.984;5.928;2023-07-29T05:12:30;18.80;99.90
39023;DHT22;25908;51.984;5.928;2023-07-29T05:14:58;18.80;99.90
39023;DHT22;25908;51.984;5.928;2023-07-29T05:17:23;18.80;99.90
39023;DHT22;25908;51.984;5.928;2023-07-29T05:19:49;18.90;99.90
39023;DHT22;25908;51.984;5.928;2023-07-29T05:22:14;18.80;99.90
39023;DHT22;25908;51.984;5.928;2023-07-29T05:24:40;18.80;99.90
39023;DHT22;25908;51.984;5.928;2023-07-29T05:27:06;18.80;99.90
39023;DHT22;25908;51.984;5.928;2023-07-29T05:29:33;18.80;99.90
39023;DHT22;25908;51.984;5.928;2023-07-29T05:31:59;18.90;99.90
39023;DHT22;25908;51.984;5.928;2023-07-29T05:34:25;18.90;99.90
39023;DHT22;25908;51.984;5.928;2023-07-29T05:36:50;18.90;99.90
39023;DHT22;25908;51.984;5.928;2023-07-29T05:39:16;18.90;99.90
39023;DHT22;25908;51.984;5.928;2023-07-29T05:41:41;18.90;99.90
39023;DHT22;25908;51.984;5.928;2023-07-29T05:44:07;18.90;99.90
39023;DHT22;25908;51.984;5.928;2023-07-29T05:46:33;18.90;99.90
39023;DHT22;25908;51.984;5.928;2023-07-29T05:48:58;18.90;99.90
39023;DHT22;25908;51.984;5.928;2023-07-29T05:51:24;18.90;99.90
39023;DHT22;25908;51.984;5.928;2023-07-29T05:53:49;18.90;99.90
39023;DHT22;25908;51.984;5.928;2023-07-29T05:56:15;18.90;99.90
39023;DHT22;25908;51.984;5.928;2023-07-29T05:58:40;18.90;99.90
39023;DHT22;25908;51.984;5.928;2023-07-29T06:01:06;18.90;99.90
39023;DHT22;25908;51.984;5.928;2023-07-29T06:03:31;19.00;99.90
39023;DHT22;25908;51.984;5.928;2023-07-29T06:05:57;18.90;99.90
39023;DHT22;25908;51.984;5.928;2023-07-29T06:08:23;18.90;99.90
39023;DHT22;25908;51.984;5.928;2023-07-29T06:10:48;19.00;99.90
39023;DHT22;25908;51.984;5.928;2023-07-29T06:13:14;18.90;99.90
39023;DHT22;25908;51.984;5.928;2023-07-29T06:15:39;19.00;99.90
39023;DHT22;25908;51.984;5.928;2023-07-29T06:18:05;19.00;99.90
39023;DHT22;25908;51.984;5.928;2023-07-29T06:20:31;19.00;99.90
39023;DHT22;25908;51.984;5.928;2023-07-29T06:22:56;19.00;99.90
39023;DHT22;25908;51.984;5.928;2023-07-29T06:25:22;19.10;99.90
39023;DHT22;25908;51.984;5.928;2023-07-29T06:27:48;19.30;99.90
39023;DHT22;25908;51.984;5.928;2023-07-29T06:30:13;19.50;99.90
39023;DHT22;25908;51.984;5.928;2023-07-29T06:32:39;19.80;99.90
39023;DHT22;25908;51.984;5.928;2023-07-29T06:35:05;20.00;99.90
39023;DHT22;25908;51.984;5.928;2023-07-29T06:37:30;20.30;99.90
39023;DHT22;25908;51.984;5.928;2023-07-29T06:39:56;20.60;99.90
39023;DHT22;25908;51.984;5.928;2023-07-29T06:42:22;20.90;99.90
39023;DHT22;25908;51.984;5.928;2023-07-29T06:44:47;21.30;99.90
39023;DHT22;25908;51.984;5.928;2023-07-29T06:47:13;21.50;99.90
39023;DHT22;25908;51.984;5.928;2023-07-29T06:49:38;21.60;99.90
39023;DHT22;25908;51.984;5.928;2023-07-29T06:52:04;21.50;99.90
39023;DHT22;25908;51.984;5.928;2023-07-29T06:54:30;21.40;99.90
39023;DHT22;25908;51.984;5.928;2023-07-29T06:56:55;21.40;99.90
39023;DHT22;25908;51.984;5.928;2023-07-29T06:59:21;21.50;99.90
39023;DHT22;25908;51.984;5.928;2023-07-29T07:01:46;21.50;99.90
39023;DHT22;25908;51.984;5.928;2023-07-29T07:04:12;21.50;99.90
39023;DHT22;25908;51.984;5.928;2023-07-29T07:06:38;21.60;99.90
39023;DHT22;25908;51.984;5.928;2023-07-29T07:09:03;21.60;99.90
39023;DHT22;25908;51.984;5.928;2023-07-29T07:11:29;21.50;99.90
39023;DHT22;25908;51.984;5.928;2023-07-29T07:13:54;21.60;99.90
39023;DHT22;25908;51.984;5.928;2023-07-29T07:16:20;21.60;99.90
39023;DHT22;25908;51.984;5.928;2023-07-29T07:18:45;21.60;99.90
39023;DHT22;25908;51.984;5.928;2023-07-29T07:21:11;21.60;99.90
39023;DHT22;25908;51.984;5.928;2023-07-29T07:23:39;21.60;99.90
39023;DHT22;25908;51.984;5.928;2023-07-29T07:26:04;21.60;99.90
39023;DHT22;25908;51.984;5.928;2023-07-29T07:28:30;21.50;99.90
39023;DHT22;25908;51.984;5.928;2023-07-29T07:30:56;21.60;99.90
39023;DHT22;25908;51.984;5.928;2023-07-29T07:33:22;21.50;99.90
39023;DHT22;25908;51.984;5.928;2023-07-29T07:35:48;21.50;99.90
39023;DHT22;25908;51.984;5.928;2023-07-29T07:38:13;21.40;99.90
39023;DHT22;25908;51.984;5.928;2023-07-29T07:40:39;21.30;99.90
39023;DHT22;25908;51.984;5.928;2023-07-29T07:43:05;21.30;99.90
39023;DHT22;25908;51.984;5.928;2023-07-29T07:45:32;21.30;99.90
39023;DHT22;25908;51.984;5.928;2023-07-29T07:47:58;21.50;99.90
39023;DHT22;25908;51.984;5.928;2023-07-29T07:50:23;21.50;99.90
39023;DHT22;25908;51.984;5.928;2023-07-29T07:52:49;21.40;99.90
39023;DHT22;25908;51.984;5.928;2023-07-29T07:55:15;21.30;99.90
39023;DHT22;25908;51.984;5.928;2023-07-29T07:57:41;21.30;99.90
39023;DHT22;25908;51.984;5.928;2023-07-29T08:00:07;21.20;99.90
39023;DHT22;25908;51.984;5.928;2023-07-29T08:02:32;21.20;99.90
39023;DHT22;25908;51.984;5.928;2023-07-29T08:04:58;21.20;99.90
39023;DHT22;25908;51.984;5.928;2023-07-29T08:07:23;21.30;99.90
39023;DHT22;25908;51.984;5.928;2023-07-29T08:09:49;21.30;99.90
39023;DHT22;25908;51.984;5.928;2023-07-29T08:12:15;21.30;99.90
39023;DHT22;25908;51.984;5.928;2023-07-29T08:14:40;21.30;99.90
39023;DHT22;25908;51.984;5.928;2023-07-29T08:17:06;21.30;99.90
39023;DHT22;25908;51.984;5.928;2023-07-29T08:19:32;21.20;99.90
39023;DHT22;25908;51.984;5.928;2023-07-29T08:21:57;21.10;99.90
39023;DHT22;25908;51.984;5.928;2023-07-29T08:24:23;21.10;99.90
39023;DHT22;25908;51.984;5.928;2023-07-29T08:26:49;21.10;99.90
39023;DHT22;25908;51.984;5.928;2023-07-29T08:29:15;21.20;99.90
39023;DHT22;25908;51.984;5.928;2023-07-29T08:31:40;21.20;99.90
39023;DHT22;25908;51.984;5.928;2023-07-29T08:34:06;21.20;99.90
39023;DHT22;25908;51.984;5.928;2023-07-29T08:36:32;21.20;99.90
39023;DHT22;25908;51.984;5.928;2023-07-29T08:38:57;21.20;99.90
39023;DHT22;25908;51.984;5.928;2023-07-29T08:41:32;21.20;99.90
39023;DHT22;25908;51.984;5.928;2023-07-29T08:44:12;21.10;99.90
39023;DHT22;25908;51.984;5.928;2023-07-29T08:46:41;21.00;99.90
39023;DHT22;25908;51.984;5.928;2023-07-29T08:49:07;20.90;99.90
39023;DHT22;25908;51.984;5.928;2023-07-29T08:51:33;20.80;99.90
39023;DHT22;25908;51.984;5.928;2023-07-29T08:54:00;20.80;99.90
39023;DHT22;25908;51.984;5.928;2023-07-29T08:56:27;20.80;99.90
39023;DHT22;25908;51.984;5.928;2023-07-29T08:58:53;21.00;99.90
39023;DHT22;25908;51.984;5.928;2023-07-29T09:01:19;21.20;99.90
39023;DHT22;25908;51.984;5.928;2023-07-29T09:03:45;21.50;99.90
39023;DHT22;25908;51.984;5.928;2023-07-29T09:06:11;21.80;99.90
39023;DHT22;25908;51.984;5.928;2023-07-29T09:08:39;21.90;99.90
39023;DHT22;25908;51.984;5.928;2023-07-29T09:11:05;22.00;99.90
39023;DHT22;25908;51.984;5.928;2023-07-29T09:13:31;22.00;99.90
39023;DHT22;25908;51.984;5.928;2023-07-29T09:15:57;22.00;99.90
39023;DHT22;25908;51.984;5.928;2023-07-29T09:18:26;22.00;99.90
39023;DHT22;25908;51.984;5.928;2023-07-29T09:20:53;21.90;99.90
39023;DHT22;25908;51.984;5.928;2023-07-29T09:23:18;21.80;99.90
39023;DHT22;25908;51.984;5.928;2023-07-29T09:25:46;21.80;99.90
39023;DHT22;25908;51.984;5.928;2023-07-29T09:28:14;21.80;99.90
39023;DHT22;25908;51.984;5.928;2023-07-29T09:30:41;21.70;99.90
39023;DHT22;25908;51.984;5.928;2023-07-29T09:33:08;21.70;99.90
39023;DHT22;25908;51.984;5.928;2023-07-29T09:35:36;21.60;99.90
39023;DHT22;25908;51.984;5.928;2023-07-29T09:38:03;21.70;99.90
39023;DHT22;25908;51.984;5.928;2023-07-29T09:40:35;21.80;99.90
39023;DHT22;25908;51.984;5.928;2023-07-29T09:43:01;21.90;99.90
39023;DHT22;25908;51.984;5.928;2023-07-29T09:45:27;21.90;99.90
39023;DHT22;25908;51.984;5.928;2023-07-29T09:47:53;22.10;99.90
39023;DHT22;25908;51.984;5.928;2023-07-29T09:50:23;22.20;99.90
39023;DHT22;25908;51.984;5.928;2023-07-29T09:52:50;22.40;99.90
39023;DHT22;25908;51.984;5.928;2023-07-29T09:55:21;22.60;99.30
39023;DHT22;25908;51.984;5.928;2023-07-29T09:57:46;22.70;99.00
39023;DHT22;25908;51.984;5.928;2023-07-29T10:00:13;22.70;99.00
39023;DHT22;25908;51.984;5.928;2023-07-29T10:02:43;22.70;99.10
39023;DHT22;25908;51.984;5.928;2023-07-29T10:05:09;23.00;99.30
39023;DHT22;25908;51.984;5.928;2023-07-29T10:07:37;23.20;99.10
39023;DHT22;25908;51.984;5.928;2023-07-29T10:10:04;23.20;99.00
39023;DHT22;25908;51.984;5.928;2023-07-29T10:12:31;23.30;98.90
39023;DHT22;25908;51.984;5.928;2023-07-29T10:15:04;23.30;98.90
39023;DHT22;25908;51.984;5.928;2023-07-29T10:17:38;23.30;98.50
39023;DHT22;25908;51.984;5.928;2023-07-29T10:20:05;23.40;98.40
39023;DHT22;25908;51.984;5.928;2023-07-29T10:22:39;23.60;98.20
39023;DHT22;25908;51.984;5.928;2023-07-29T10:25:21;23.80;98.10
39023;DHT22;25908;51.984;5.928;2023-07-29T10:27:53;24.10;97.90
39023;DHT22;25908;51.984;5.928;2023-07-29T10:30:20;24.50;97.80
39023;DHT22;25908;51.984;5.928;2023-07-29T10:32:45;24.70;97.20
39023;DHT22;25908;51.984;5.928;2023-07-29T10:35:13;25.00;96.50
39023;DHT22;25908;51.984;5.928;2023-07-29T10:37:39;24.90;95.20
39023;DHT22;25908;51.984;5.928;2023-07-29T10:40:11;24.70;94.80
39023;DHT22;25908;51.984;5.928;2023-07-29T10:42:38;24.40;95.30
39023;DHT22;25908;51.984;5.928;2023-07-29T10:45:23;24.20;95.80
39023;DHT22;25908;51.984;5.928;2023-07-29T10:47:49;24.10;95.90
39023;DHT22;25908;51.984;5.928;2023-07-29T10:50:20;24.00;96.00
39023;DHT22;25908;51.984;5.928;2023-07-29T10:52:52;24.00;96.30
39023;DHT22;25908;51.984;5.928;2023-07-29T10:55:25;24.10;96.50
39023;DHT22;25908;51.984;5.928;2023-07-29T10:57:51;24.10;96.30
39023;DHT22;25908;51.984;5.928;2023-07-29T11:00:19;24.10;96.20
39023;DHT22;25908;51.984;5.928;2023-07-29T11:02:58;24.00;96.20
39023;DHT22;25908;51.984;5.928;2023-07-29T11:05:26;24.00;96.70
39023;DHT22;25908;51.984;5.928;2023-07-29T11:07:51;24.00;96.60
39023;DHT22;25908;51.984;5.928;2023-07-29T11:10:17;23.90;96.40
39023;DHT22;25908;51.984;5.928;2023-07-29T11:12:51;24.00;96.60
39023;DHT22;25908;51.984;5.928;2023-07-29T11:15:20;24.10;96.60
39023;DHT22;25908;51.984;5.928;2023-07-29T11:17:52;24.20;96.60
39023;DHT22;25908;51.984;5.928;2023-07-29T11:20:32;24.30;96.60
39023;DHT22;25908;51.984;5.928;2023-07-29T11:22:59;24.30;96.00
39023;DHT22;25908;51.984;5.928;2023-07-29T11:25:27;24.30;95.80
39023;DHT22;25908;51.984;5.928;2023-07-29T11:27:54;24.20;95.70
39023;DHT22;25908;51.984;5.928;2023-07-29T11:30:21;24.00;95.80
39023;DHT22;25908;51.984;5.928;2023-07-29T11:32:47;24.00;95.90
39023;DHT22;25908;51.984;5.928;2023-07-29T11:35:15;23.90;96.00
39023;DHT22;25908;51.984;5.928;2023-07-29T11:37:43;23.80;96.20
39023;DHT22;25908;51.984;5.928;2023-07-29T11:40:09;23.60;96.50
39023;DHT22;25908;51.984;5.928;2023-07-29T11:42:37;23.60;96.90
39023;DHT22;25908;51.984;5.928;2023-07-29T11:45:04;23.50;97.20
39023;DHT22;25908;51.984;5.928;2023-07-29T11:47:32;23.50;97.50
39023;DHT22;25908;51.984;5.928;2023-07-29T11:50:01;23.40;97.60
39023;DHT22;25908;51.984;5.928;2023-07-29T11:52:27;23.30;97.60
39023;DHT22;25908;51.984;5.928;2023-07-29T11:54:54;23.30;97.60
39023;DHT22;25908;51.984;5.928;2023-07-29T11:57:20;23.20;97.70
39023;DHT22;25908;51.984;5.928;2023-07-29T11:59:46;23.20;97.60
39023;DHT22;25908;51.984;5.928;2023-07-29T12:02:16;23.10;97.70
39023;DHT22;25908;51.984;5.928;2023-07-29T12:04:44;22.90;97.90
39023;DHT22;25908;51.984;5.928;2023-07-29T12:07:12;22.70;98.20
39023;DHT22;25908;51.984;5.928;2023-07-29T12:09:39;22.50;98.90
39023;DHT22;25908;51.984;5.928;2023-07-29T12:12:05;22.40;99.00
39023;DHT22;25908;51.984;5.928;2023-07-29T12:14:32;22.20;99.50
39023;DHT22;25908;51.984;5.928;2023-07-29T12:17:02;22.10;99.90
39023;DHT22;25908;51.984;5.928;2023-07-29T12:19:36;22.00;99.90
39023;DHT22;25908;51.984;5.928;2023-07-29T12:22:03;21.80;99.90
39023;DHT22;25908;51.984;5.928;2023-07-29T12:24:32;21.70;99.90
39023;DHT22;25908;51.984;5.928;2023-07-29T12:26:59;21.60;99.90
39023;DHT22;25908;51.984;5.928;2023-07-29T12:29:25;21.50;99.90
39023;DHT22;25908;51.984;5.928;2023-07-29T12:31:58;21.50;99.90
39023;DHT22;25908;51.984;5.928;2023-07-29T12:34:26;21.40;99.90
39023;DHT22;25908;51.984;5.928;2023-07-29T12:36:52;21.40;99.90
39023;DHT22;25908;51.984;5.928;2023-07-29T12:41:51;21.30;99.90
39023;DHT22;25908;51.984;5.928;2023-07-29T12:44:17;21.30;99.90
39023;DHT22;25908;51.984;5.928;2023-07-29T12:46:43;21.30;99.90
39023;DHT22;25908;51.984;5.928;2023-07-29T12:49:09;21.30;99.90
39023;DHT22;25908;51.984;5.928;2023-07-29T12:51:35;21.30;99.90
39023;DHT22;25908;51.984;5.928;2023-07-29T12:54:03;21.30;99.90
39023;DHT22;25908;51.984;5.928;2023-07-29T12:56:29;21.40;99.90
39023;DHT22;25908;51.984;5.928;2023-07-29T12:58:56;21.50;99.90
39023;DHT22;25908;51.984;5.928;2023-07-29T13:01:23;21.60;99.90
39023;DHT22;25908;51.984;5.928;2023-07-29T13:03:48;21.60;99.90
39023;DHT22;25908;51.984;5.928;2023-07-29T13:06:14;21.60;99.90
39023;DHT22;25908;51.984;5.928;2023-07-29T13:08:41;21.60;99.90
39023;DHT22;25908;51.984;5.928;2023-07-29T13:11:07;21.60;99.90
39023;DHT22;25908;51.984;5.928;2023-07-29T13:13:33;21.70;99.90
39023;DHT22;25908;51.984;5.928;2023-07-29T13:15:58;21.80;99.90
39023;DHT22;25908;51.984;5.928;2023-07-29T13:18:24;21.80;99.90
39023;DHT22;25908;51.984;5.928;2023-07-29T13:20:49;21.90;99.90
39023;DHT22;25908;51.984;5.928;2023-07-29T13:23:15;21.90;99.90
39023;DHT22;25908;51.984;5.928;2023-07-29T13:25:41;21.90;99.90
39023;DHT22;25908;51.984;5.928;2023-07-29T13:28:09;21.90;99.90
39023;DHT22;25908;51.984;5.928;2023-07-29T13:30:35;22.00;99.90
39023;DHT22;25908;51.984;5.928;2023-07-29T13:33:01;22.10;99.90
39023;DHT22;25908;51.984;5.928;2023-07-29T13:35:27;22.10;99.90
39023;DHT22;25908;51.984;5.928;2023-07-29T13:37:52;22.10;99.90
39023;DHT22;25908;51.984;5.928;2023-07-29T13:40:18;22.00;99.90
39023;DHT22;25908;51.984;5.928;2023-07-29T13:42:43;22.00;99.90
39023;DHT22;25908;51.984;5.928;2023-07-29T13:45:09;22.00;99.90
39023;DHT22;25908;51.984;5.928;2023-07-29T13:47:35;22.10;99.90
39023;DHT22;25908;51.984;5.928;2023-07-29T13:50:01;22.20;99.90
39023;DHT22;25908;51.984;5.928;2023-07-29T13:52:27;22.20;99.90
39023;DHT22;25908;51.984;5.928;2023-07-29T13:54:52;22.30;99.90
39023;DHT22;25908;51.984;5.928;2023-07-29T13:57:18;22.40;99.90
39023;DHT22;25908;51.984;5.928;2023-07-29T13:59:43;22.40;99.90
39023;DHT22;25908;51.984;5.928;2023-07-29T14:02:09;22.40;99.90
39023;DHT22;25908;51.984;5.928;2023-07-29T14:04:35;22.40;99.90
39023;DHT22;25908;51.984;5.928;2023-07-29T14:07:00;22.50;99.90
39023;DHT22;25908;51.984;5.928;2023-07-29T14:09:26;22.50;99.90
39023;DHT22;25908;51.984;5.928;2023-07-29T14:11:54;22.50;99.90
39023;DHT22;25908;51.984;5.928;2023-07-29T14:14:19;22.50;99.90
39023;DHT22;25908;51.984;5.928;2023-07-29T14:16:45;22.60;99.90
39023;DHT22;25908;51.984;5.928;2023-07-29T14:19:11;22.60;99.90
39023;DHT22;25908;51.984;5.928;2023-07-29T14:21:36;22.60;99.90
39023;DHT22;25908;51.984;5.928;2023-07-29T14:24:02;22.60;99.90
39023;DHT22;25908;51.984;5.928;2023-07-29T14:26:28;22.60;99.90
39023;DHT22;25908;51.984;5.928;2023-07-29T14:28:54;22.60;99.90
39023;DHT22;25908;51.984;5.928;2023-07-29T14:31:19;22.60;99.90
39023;DHT22;25908;51.984;5.928;2023-07-29T14:33:45;22.60;99.90
39023;DHT22;25908;51.984;5.928;2023-07-29T14:36:10;22.60;99.90
39023;DHT22;25908;51.984;5.928;2023-07-29T14:38:36;22.70;99.90
39023;DHT22;25908;51.984;5.928;2023-07-29T14:41:03;22.60;99.90
39023;DHT22;25908;51.984;5.928;2023-07-29T14:43:30;22.60;99.90
39023;DHT22;25908;51.984;5.928;2023-07-29T14:45:55;22.60;99.90
39023;DHT22;25908;51.984;5.928;2023-07-29T14:48:21;22.60;99.90
39023;DHT22;25908;51.984;5.928;2023-07-29T14:50:47;22.70;99.90
39023;DHT22;25908;51.984;5.928;2023-07-29T14:53:13;22.70;99.90
39023;DHT22;25908;51.984;5.928;2023-07-29T14:55:38;22.70;99.90
39023;DHT22;25908;51.984;5.928;2023-07-29T14:58:04;22.70;99.90
39023;DHT22;25908;51.984;5.928;2023-07-29T15:00:29;22.70;99.90
39023;DHT22;25908;51.984;5.928;2023-07-29T15:02:55;22.70;99.90
39023;DHT22;25908;51.984;5.928;2023-07-29T15:05:20;22.70;99.90
39023;DHT22;25908;51.984;5.928;2023-07-29T15:07:46;22.70;99.90
39023;DHT22;25908;51.984;5.928;2023-07-29T15:10:15;22.70;99.90
39023;DHT22;25908;51.984;5.928;2023-07-29T15:12:41;22.70;99.90
39023;DHT22;25908;51.984;5.928;2023-07-29T15:15:08;22.70;99.90
39023;DHT22;25908;51.984;5.928;2023-07-29T15:17:34;22.70;99.90
39023;DHT22;25908;51.984;5.928;2023-07-29T15:19:59;22.70;99.90
39023;DHT22;25908;51.984;5.928;2023-07-29T15:22:25;22.70;99.90
39023;DHT22;25908;51.984;5.928;2023-07-29T15:24:50;22.70;99.90
39023;DHT22;25908;51.984;5.928;2023-07-29T15:27:16;22.70;99.90
39023;DHT22;25908;51.984;5.928;2023-07-29T15:29:42;22.70;99.90
39023;DHT22;25908;51.984;5.928;2023-07-29T15:32:07;22.70;99.90